createdAt,value
2023-02-03T00:00:10.734Z,6.50
2023-02-03T00:02:50.101Z,5.60
2023-02-03T00:05:23.061Z,5.40
2023-02-03T00:07:53.602Z,5.20
2023-02-03T00:10:27.884Z,5.20
2023-02-03T00:12:59.902Z,5.10
2023-02-03T00:15:34.502Z,6.50
2023-02-03T00:18:15.009Z,5.50
2023-02-03T00:20:45.435Z,5.50
2023-02-03T00:23:18.953Z,5.50
2023-02-03T00:25:48.542Z,5.40
2023-02-03T00:28:21.060Z,7.60
2023-02-03T00:30:53.599Z,8.40
2023-02-03T00:33:26.006Z,8.30
2023-02-03T00:35:57.415Z,10.10
2023-02-03T00:38:27.747Z,11.40
2023-02-03T00:40:55.011Z,11.10
2023-02-03T00:43:31.661Z,9.10
2023-02-03T00:45:59.280Z,8.20
2023-02-03T00:48:28.789Z,9.50
2023-02-03T00:50:58.487Z,10.00
2023-02-03T00:53:28.337Z,6.70
2023-02-03T00:55:57.082Z,7.10
2023-02-03T00:58:29.193Z,8.00
2023-02-03T01:01:03.372Z,8.10
2023-02-03T01:03:37.942Z,8.10
2023-02-03T01:06:17.695Z,8.20
2023-02-03T01:08:44.789Z,7.60
2023-02-03T01:11:15.245Z,8.30
2023-02-03T01:13:47.746Z,7.70
2023-02-03T01:16:21.770Z,6.40
2023-02-03T01:18:52.362Z,6.80
2023-02-03T01:21:24.903Z,6.70
2023-02-03T01:23:55.025Z,8.20
2023-02-03T01:26:24.394Z,6.10
2023-02-03T01:28:57.260Z,7.30
2023-02-03T01:31:30.281Z,5.90
2023-02-03T01:34:03.074Z,5.50
2023-02-03T01:36:36.740Z,6.00
2023-02-03T01:39:06.515Z,4.90
2023-02-03T01:41:39.021Z,5.40
2023-02-03T01:44:40.556Z,5.00
2023-02-03T01:47:34.142Z,5.50
2023-02-03T01:51:02.080Z,5.70
2023-02-03T01:54:30.841Z,6.30
2023-02-03T01:57:26.642Z,6.80
2023-02-03T02:00:17.950Z,6.00
2023-02-03T02:02:47.984Z,6.10
2023-02-03T02:05:33.975Z,5.80
2023-02-03T02:08:04.922Z,6.70
2023-02-03T02:10:38.026Z,6.60
2023-02-03T02:13:05.314Z,6.00
2023-02-03T02:15:55.243Z,6.40
2023-02-03T02:18:38.086Z,6.20
2023-02-03T02:21:26.726Z,6.80
2023-02-03T02:24:08.714Z,6.90
2023-02-03T02:27:05.400Z,6.40
2023-02-03T02:29:40.826Z,6.20
2023-02-03T02:32:22.403Z,6.20
2023-02-03T02:35:43.240Z,7.10
2023-02-03T02:38:35.093Z,8.70
2023-02-03T02:41:30.294Z,7.20
2023-02-03T02:44:07.056Z,9.10
2023-02-03T02:46:42.106Z,7.80
2023-02-03T02:49:26.979Z,7.70
2023-02-03T02:51:59.609Z,7.70
2023-02-03T02:54:29.441Z,6.10
2023-02-03T02:56:59.507Z,7.80
2023-02-03T02:59:32.732Z,8.00
2023-02-03T03:02:01.883Z,8.20
2023-02-03T03:04:31.622Z,9.80
2023-02-03T03:07:05.156Z,9.60
2023-02-03T03:09:48.583Z,10.50
2023-02-03T03:12:23.529Z,10.30
2023-02-03T03:15:07.577Z,11.80
2023-02-03T03:17:39.586Z,10.30
2023-02-03T03:20:14.248Z,11.60
2023-02-03T03:22:46.976Z,12.30
2023-02-03T03:28:32.870Z,13.20
2023-02-03T03:31:27.354Z,14.10
2023-02-03T03:33:57.932Z,11.80
2023-02-03T03:36:39.989Z,10.30
2023-02-03T03:39:35.613Z,10.90
2023-02-03T03:42:16.587Z,11.40
2023-02-03T03:45:14.239Z,14.20
2023-02-03T03:48:09.870Z,13.70
2023-02-03T03:50:46.252Z,12.10
2023-02-03T03:53:17.716Z,13.50
2023-02-03T03:55:49.621Z,12.10
2023-02-03T03:58:23.166Z,11.10
2023-02-03T04:00:58.688Z,11.50
2023-02-03T04:03:32.597Z,13.70
2023-02-03T04:06:02.484Z,14.80
2023-02-03T04:08:31.642Z,14.60
2023-02-03T04:11:01.605Z,13.10
2023-02-03T04:13:29.371Z,12.70
2023-02-03T04:15:58.387Z,14.20
2023-02-03T04:18:30.553Z,12.90
2023-02-03T04:21:07.571Z,13.30
2023-02-03T04:23:35.567Z,10.20
2023-02-03T04:26:06.508Z,12.80
2023-02-03T04:28:40.301Z,9.30
2023-02-03T04:31:10.995Z,8.80
2023-02-03T04:33:41.777Z,8.80
2023-02-03T04:36:12.916Z,10.00
2023-02-03T04:38:45.399Z,9.80
2023-02-03T04:43:15.360Z,8.80
2023-02-03T04:45:47.066Z,8.60
2023-02-03T04:48:21.967Z,8.40
2023-02-03T04:50:50.995Z,17.10
2023-02-03T04:53:24.161Z,15.90
2023-02-03T04:55:55.804Z,24.00
2023-02-03T04:58:29.418Z,25.10
2023-02-03T05:00:58.181Z,27.20
2023-02-03T05:03:57.273Z,31.10
2023-02-03T05:06:33.045Z,32.20
2023-02-03T05:09:02.409Z,25.40
2023-02-03T05:11:36.303Z,24.10
2023-02-03T05:14:07.581Z,19.40
2023-02-03T05:16:41.596Z,15.90
2023-02-03T05:19:11.348Z,18.00
2023-02-03T05:21:45.231Z,16.20
2023-02-03T05:24:14.200Z,16.30
2023-02-03T05:26:46.262Z,17.50
2023-02-03T05:29:15.556Z,17.90
2023-02-03T05:31:52.378Z,19.50
2023-02-03T05:34:22.276Z,19.90
2023-02-03T05:36:57.741Z,19.80
2023-02-03T05:39:31.194Z,18.60
2023-02-03T05:42:05.291Z,21.40
2023-02-03T05:44:36.595Z,22.50
2023-02-03T05:47:09.009Z,25.40
2023-02-03T05:49:42.995Z,28.00
2023-02-03T05:52:17.283Z,26.40
2023-02-03T05:54:55.396Z,29.20
2023-02-03T05:57:48.723Z,26.20
2023-02-03T06:00:35.214Z,23.20
2023-02-03T06:03:06.107Z,19.40
2023-02-03T06:05:41.083Z,15.60
2023-02-03T06:08:11.500Z,15.20
2023-02-03T06:10:45.367Z,16.20
2023-02-03T06:13:48.709Z,11.70
2023-02-03T06:16:25.015Z,10.80
2023-02-03T06:18:55.941Z,12.00
2023-02-03T06:21:32.621Z,9.90
2023-02-03T06:24:07.654Z,11.00
2023-02-03T06:26:40.124Z,13.30
2023-02-03T06:29:13.406Z,15.30
2023-02-03T06:31:45.982Z,12.80
2023-02-03T06:34:15.886Z,12.60
2023-02-03T06:38:38.942Z,12.50
2023-02-03T06:42:54.563Z,14.00
2023-02-03T06:45:25.109Z,14.70
2023-02-03T06:47:53.973Z,15.10
2023-02-03T06:50:26.652Z,12.70
2023-02-03T06:52:54.539Z,12.50
2023-02-03T06:55:27.010Z,11.10
2023-02-03T06:57:57.272Z,14.10
2023-02-03T07:00:25.319Z,20.90
2023-02-03T07:02:57.787Z,20.80
2023-02-03T07:05:27.448Z,16.80
2023-02-03T07:07:59.648Z,18.40
2023-02-03T07:10:30.626Z,19.80
2023-02-03T07:13:07.149Z,18.60
2023-02-03T07:15:40.479Z,17.50
2023-02-03T07:18:10.099Z,19.20
2023-02-03T07:20:41.783Z,18.90
2023-02-03T07:23:16.239Z,18.80
2023-02-03T07:25:46.523Z,16.60
2023-02-03T07:28:18.819Z,17.80
2023-02-03T07:34:00.911Z,17.60
2023-02-03T07:36:28.732Z,17.40
2023-02-03T07:38:58.416Z,20.60
2023-02-03T07:41:31.494Z,21.40
2023-02-03T07:44:02.835Z,21.60
2023-02-03T07:46:33.108Z,23.30
2023-02-03T07:49:03.920Z,25.70
2023-02-03T07:51:36.049Z,23.40
2023-02-03T07:54:08.401Z,19.40
2023-02-03T07:56:37.078Z,17.10
2023-02-03T07:59:08.513Z,14.70
2023-02-03T08:01:38.677Z,15.90
2023-02-03T08:04:16.641Z,14.10
2023-02-03T08:06:44.007Z,14.80
2023-02-03T08:09:24.643Z,14.90
2023-02-03T08:11:53.235Z,10.70
2023-02-03T08:14:26.621Z,13.80
2023-02-03T08:16:56.530Z,11.40
2023-02-03T08:19:38.419Z,11.90
2023-02-03T08:22:09.351Z,10.20
2023-02-03T08:24:38.411Z,11.00
2023-02-03T08:27:06.868Z,10.40
2023-02-03T08:29:38.797Z,11.10
2023-02-03T08:32:19.791Z,11.80
2023-02-03T08:34:54.924Z,14.00
2023-02-03T08:37:25.103Z,18.40
2023-02-03T08:39:55.735Z,18.20
2023-02-03T08:42:25.713Z,13.60
2023-02-03T08:45:04.871Z,13.50
2023-02-03T08:47:32.833Z,14.90
2023-02-03T08:50:03.702Z,12.20
2023-02-03T08:52:34.191Z,11.70
2023-02-03T08:55:06.095Z,11.70
2023-02-03T09:00:08.670Z,11.50
2023-02-03T09:02:41.693Z,9.40
2023-02-03T09:07:41.042Z,10.90
2023-02-03T09:10:11.660Z,10.30
2023-02-03T09:12:43.595Z,8.20
2023-02-03T09:15:17.199Z,9.10
2023-02-03T09:17:49.737Z,10.80
2023-02-03T09:20:18.932Z,14.40
2023-02-03T09:22:47.752Z,13.20
2023-02-03T09:25:16.349Z,13.90
2023-02-03T09:27:54.771Z,11.40
2023-02-03T09:30:28.090Z,11.50
2023-02-03T09:32:57.712Z,9.10
2023-02-03T09:35:26.949Z,10.40
2023-02-03T09:38:04.403Z,9.90
2023-02-03T09:40:35.859Z,10.40
2023-02-03T09:43:23.158Z,10.70
2023-02-03T09:45:54.495Z,9.90
2023-02-03T09:48:26.020Z,8.30
2023-02-03T09:50:54.778Z,10.90
2023-02-03T09:53:33.189Z,11.10
2023-02-03T09:56:11.000Z,10.30
2023-02-03T09:58:42.746Z,10.20
2023-02-03T10:01:18.293Z,10.10
2023-02-03T10:04:26.602Z,12.70
2023-02-03T10:07:28.715Z,14.60
2023-02-03T10:10:20.771Z,18.70
2023-02-03T10:12:58.994Z,13.10
2023-02-03T10:15:33.859Z,11.20
2023-02-03T10:18:11.247Z,11.60
2023-02-03T10:20:47.231Z,12.60
2023-02-03T10:23:38.169Z,11.00
2023-02-03T10:26:09.032Z,11.90
2023-02-03T10:28:41.785Z,11.90
2023-02-03T10:31:18.524Z,9.60
2023-02-03T10:33:47.223Z,8.70
2023-02-03T10:37:11.785Z,10.60
2023-02-03T10:39:44.362Z,8.10
2023-02-03T10:42:15.358Z,8.70
2023-02-03T10:44:57.879Z,7.50
2023-02-03T10:47:39.784Z,7.00
2023-02-03T10:50:22.215Z,9.60
2023-02-03T10:53:26.929Z,9.00
2023-02-03T10:56:10.337Z,11.00
2023-02-03T10:58:39.742Z,10.00
2023-02-03T11:01:16.913Z,9.00
2023-02-03T11:03:57.777Z,10.40
2023-02-03T11:06:28.891Z,9.40
2023-02-03T11:08:58.041Z,10.70
2023-02-03T11:11:31.591Z,11.30
2023-02-03T11:14:03.187Z,12.10
2023-02-03T11:16:34.988Z,10.60
2023-02-03T11:19:23.551Z,10.70
2023-02-03T11:21:57.005Z,9.00
2023-02-03T11:24:54.139Z,8.90
2023-02-03T11:27:24.533Z,8.40
2023-02-03T11:30:08.132Z,8.70
2023-02-03T11:35:29.242Z,9.30
2023-02-03T11:38:01.055Z,10.00
2023-02-03T11:40:30.667Z,12.00
2023-02-03T11:43:03.010Z,10.20
2023-02-03T11:45:43.060Z,9.10
2023-02-03T11:48:35.744Z,8.30
2023-02-03T11:51:34.780Z,8.70
2023-02-03T11:54:32.179Z,9.50
2023-02-03T11:57:52.220Z,8.50
2023-02-03T12:01:11.007Z,9.80
2023-02-03T12:04:15.607Z,9.50
2023-02-03T12:07:19.910Z,8.50
2023-02-03T12:10:32.541Z,10.50
2023-02-03T12:13:23.453Z,11.20
2023-02-03T12:16:05.272Z,12.30
2023-02-03T12:18:41.494Z,13.70
2023-02-03T12:21:24.785Z,12.90
2023-02-03T12:24:06.181Z,10.90
2023-02-03T12:26:58.992Z,12.40
2023-02-03T12:29:55.770Z,12.40
2023-02-03T12:32:40.677Z,16.70
2023-02-03T12:35:18.353Z,12.10
2023-02-03T12:37:57.185Z,9.80
2023-02-03T12:40:49.455Z,9.00
2023-02-03T12:43:52.155Z,9.30
2023-02-03T12:47:13.838Z,6.70
2023-02-03T12:50:22.871Z,7.80
2023-02-03T12:53:17.104Z,8.00
2023-02-03T12:56:12.635Z,9.30
2023-02-03T12:58:52.228Z,9.50
2023-02-03T13:02:05.082Z,6.40
2023-02-03T13:04:42.981Z,3.30
2023-02-03T13:08:04.683Z,4.60
2023-02-03T13:10:43.507Z,3.70
2023-02-03T13:13:17.745Z,4.60
2023-02-03T13:15:50.460Z,4.10
2023-02-03T13:18:38.497Z,4.50
2023-02-03T13:21:18.171Z,3.30
2023-02-03T13:23:48.002Z,3.80
2023-02-03T13:26:42.862Z,3.70
2023-02-03T13:30:01.501Z,4.30
2023-02-03T13:33:05.632Z,4.20
2023-02-03T13:35:55.265Z,2.70
2023-02-03T13:38:36.421Z,3.20
2023-02-03T13:41:19.342Z,2.80
2023-02-03T13:43:51.101Z,3.50
2023-02-03T13:46:27.592Z,2.90
2023-02-03T13:48:58.948Z,2.90
2023-02-03T13:51:37.181Z,3.20
2023-02-03T13:54:33.943Z,3.00
2023-02-03T13:57:30.999Z,3.30
2023-02-03T14:00:03.228Z,4.30
2023-02-03T14:02:52.730Z,3.80
2023-02-03T14:08:32.517Z,3.40
2023-02-03T14:11:39.826Z,3.50
2023-02-03T14:14:12.252Z,2.20
2023-02-03T14:16:54.132Z,2.00
2023-02-03T14:19:32.949Z,2.00
2023-02-03T14:22:10.246Z,1.90
2023-02-03T14:27:30.213Z,3.10
2023-02-03T14:30:14.527Z,3.60
2023-02-03T14:32:55.343Z,4.50
2023-02-03T14:35:35.346Z,3.50
2023-02-03T14:38:13.423Z,4.90
2023-02-03T14:41:03.934Z,4.00
2023-02-03T14:43:55.726Z,3.80
2023-02-03T19:01:04.277Z,9.20
2023-02-03T19:03:44.958Z,9.00
2023-02-03T19:06:24.211Z,9.80
2023-02-03T19:08:54.429Z,10.00
2023-02-03T19:11:30.917Z,10.30
2023-02-03T19:14:00.396Z,8.20
2023-02-03T19:16:39.923Z,8.20
2023-02-03T19:19:17.058Z,7.10
2023-02-03T19:22:00.830Z,7.10
2023-02-03T19:24:32.388Z,7.70
2023-02-03T19:27:05.243Z,8.00
2023-02-03T19:29:39.240Z,7.40
2023-02-03T19:32:17.184Z,8.20
2023-02-03T19:34:48.670Z,7.50
2023-02-03T19:37:33.723Z,8.00
2023-02-03T19:40:06.749Z,6.90
2023-02-03T19:43:04.052Z,8.40
2023-02-03T19:45:39.063Z,8.20
2023-02-03T19:48:36.219Z,7.20
2023-02-03T19:51:07.022Z,7.10
2023-02-03T19:53:41.613Z,7.20
2023-02-03T19:56:15.489Z,6.90
2023-02-03T19:58:51.971Z,6.80
2023-02-03T20:01:26.995Z,6.00
2023-02-03T20:04:00.769Z,7.00
2023-02-03T20:06:39.505Z,7.10
2023-02-03T20:09:15.221Z,7.40
2023-02-03T20:11:57.158Z,7.20
2023-02-03T20:14:36.466Z,9.30
2023-02-03T20:17:33.018Z,8.10
2023-02-03T20:20:04.322Z,7.90
2023-02-03T20:22:39.437Z,7.10
2023-02-03T20:25:13.810Z,7.40
2023-02-03T20:27:47.456Z,7.10
2023-02-03T20:30:29.411Z,6.80
2023-02-03T20:32:58.218Z,6.80
2023-02-03T20:35:33.172Z,6.70
2023-02-03T20:38:03.875Z,7.00
2023-02-03T20:40:42.308Z,7.20
2023-02-03T20:43:25.360Z,6.40
2023-02-03T20:45:58.509Z,7.70
2023-02-03T20:48:32.606Z,7.60
2023-02-03T20:51:06.832Z,8.70
2023-02-03T20:53:38.899Z,8.80
2023-02-03T20:56:19.211Z,10.80
2023-02-03T20:59:44.042Z,11.20
2023-02-03T21:05:46.406Z,10.10
2023-02-03T21:08:15.579Z,8.00
2023-02-03T21:10:45.817Z,10.30
2023-02-03T21:13:30.660Z,9.30
2023-02-03T21:16:02.033Z,9.90
2023-02-03T21:18:37.777Z,7.70
2023-02-03T21:21:16.934Z,9.90
2023-02-03T21:23:53.585Z,7.70
2023-02-03T21:26:33.613Z,7.60
2023-02-03T21:29:03.739Z,7.40
2023-02-03T21:31:36.684Z,6.70
2023-02-03T21:34:27.531Z,6.50
2023-02-03T21:36:59.624Z,6.60
2023-02-03T21:39:32.169Z,6.20
2023-02-03T21:42:42.700Z,6.90
2023-02-03T21:45:28.002Z,8.40
2023-02-03T21:48:02.625Z,8.10
2023-02-03T21:50:40.790Z,10.70
2023-02-03T21:53:38.078Z,9.70
2023-02-03T21:56:24.064Z,8.50
2023-02-03T21:58:58.972Z,10.00
2023-02-03T22:01:34.722Z,11.00
2023-02-03T22:04:06.009Z,9.80
2023-02-03T22:06:53.634Z,8.30
2023-02-03T22:09:26.251Z,10.60
2023-02-03T22:12:17.633Z,7.20
2023-02-03T22:14:47.948Z,7.40
2023-02-03T22:17:22.822Z,7.70
2023-02-03T22:19:52.417Z,7.40
2023-02-03T22:22:20.446Z,7.60
2023-02-03T22:24:54.880Z,7.70
2023-02-03T22:27:25.744Z,5.60
2023-02-03T22:29:56.073Z,7.70
2023-02-03T22:32:29.907Z,7.00
2023-02-03T22:34:59.279Z,6.20
2023-02-03T22:37:32.320Z,5.70
2023-02-03T22:40:10.288Z,5.10
2023-02-03T22:42:38.938Z,6.10
2023-02-03T22:45:09.811Z,5.60
2023-02-03T22:47:40.128Z,5.90
2023-02-03T22:50:10.105Z,5.70
2023-02-03T22:52:38.866Z,5.90
2023-02-03T22:55:09.409Z,6.90
2023-02-03T22:57:38.865Z,6.70
2023-02-03T23:00:10.427Z,6.80
2023-02-03T23:02:39.887Z,6.80
2023-02-03T23:05:09.891Z,6.70
2023-02-03T23:07:42.204Z,7.60
2023-02-03T23:10:15.649Z,7.10
2023-02-03T23:12:48.834Z,6.40
2023-02-03T23:17:49.995Z,6.70
2023-02-03T23:20:18.843Z,7.40
2023-02-03T23:22:49.052Z,7.20
2023-02-03T23:25:17.034Z,6.50
2023-02-03T23:27:45.374Z,6.70
2023-02-03T23:30:15.798Z,7.10
2023-02-03T23:32:45.745Z,8.40
2023-02-03T23:35:35.025Z,8.40
2023-02-03T23:38:08.267Z,8.70
2023-02-03T23:40:38.479Z,7.70
2023-02-03T23:43:06.769Z,7.80
2023-02-03T23:45:35.142Z,7.40
2023-02-03T23:48:04.043Z,7.90
2023-02-03T23:50:35.113Z,8.80
2023-02-03T23:53:05.929Z,7.30
2023-02-03T23:55:35.750Z,8.40
2023-02-03T23:58:05.379Z,8.20
